createdAt,value
2023-01-19T00:00:32.965Z,-0.73
2023-01-19T00:03:01.371Z,-0.69
2023-01-19T00:05:31.150Z,-0.68
2023-01-19T00:08:15.962Z,-0.67
2023-01-19T00:10:45.337Z,-0.65
2023-01-19T00:13:14.134Z,-0.62
2023-01-19T00:15:42.854Z,-0.60
2023-01-19T00:18:11.547Z,-0.61
2023-01-19T00:20:41.844Z,-0.64
2023-01-19T00:23:10.323Z,-0.56
2023-01-19T00:25:42.784Z,-0.55
2023-01-19T00:28:13.107Z,-0.52
2023-01-19T00:30:42.102Z,-0.52
2023-01-19T00:33:11.393Z,-0.52
2023-01-19T00:35:42.625Z,-0.55
2023-01-19T00:38:12.765Z,-0.51
2023-01-19T00:40:41.195Z,-0.49
2023-01-19T00:43:08.465Z,-0.50
2023-01-19T00:45:36.791Z,-0.50
2023-01-19T00:48:05.672Z,-0.52
2023-01-19T00:50:35.111Z,-0.52
2023-01-19T00:53:05.197Z,-0.53
2023-01-19T00:55:33.667Z,-0.55
2023-01-19T00:58:03.845Z,-0.55
2023-01-19T01:00:32.145Z,-0.57
2023-01-19T01:03:00.898Z,-0.58
2023-01-19T01:05:30.000Z,-0.60
2023-01-19T01:07:58.761Z,-0.62
2023-01-19T01:10:30.600Z,-0.66
2023-01-19T01:12:58.885Z,-0.72
2023-01-19T01:15:28.119Z,-0.70
2023-01-19T01:17:56.424Z,-0.72
2023-01-19T01:20:28.277Z,-0.76
2023-01-19T01:22:58.838Z,-0.79
2023-01-19T01:25:31.177Z,-0.81
2023-01-19T01:28:03.270Z,-0.83
2023-01-19T01:30:31.569Z,-0.83
2023-01-19T01:33:00.067Z,-0.85
2023-01-19T01:35:29.401Z,-0.88
2023-01-19T01:38:00.407Z,-0.85
2023-01-19T01:40:31.696Z,-0.87
2023-01-19T01:43:00.107Z,-0.90
2023-01-19T01:45:36.594Z,-0.91
2023-01-19T01:48:11.137Z,-0.94
2023-01-19T01:51:04.021Z,-0.97
2023-01-19T01:53:35.562Z,-1.01
2023-01-19T01:56:12.016Z,-1.04
2023-01-19T01:58:41.201Z,-1.06
2023-01-19T02:01:23.766Z,-1.10
2023-01-19T02:03:52.746Z,-1.11
2023-01-19T02:06:23.700Z,-1.13
2023-01-19T02:09:16.411Z,-1.13
2023-01-19T02:12:03.896Z,-1.16
2023-01-19T02:14:33.496Z,-1.15
2023-01-19T02:17:02.272Z,-1.16
2023-01-19T02:19:36.285Z,-1.16
2023-01-19T02:22:12.176Z,-1.16
2023-01-19T02:24:42.451Z,-1.16
2023-01-19T02:27:11.845Z,-1.19
2023-01-19T02:29:41.434Z,-1.17
2023-01-19T02:32:10.088Z,-1.14
2023-01-19T02:34:38.528Z,-1.15
2023-01-19T02:37:12.299Z,-1.15
2023-01-19T02:39:46.374Z,-1.15
2023-01-19T02:42:23.254Z,-1.15
2023-01-19T02:44:54.808Z,-1.17
2023-01-19T02:47:24.866Z,-1.19
2023-01-19T02:49:57.441Z,-1.21
2023-01-19T02:52:26.955Z,-1.25
2023-01-19T02:55:05.887Z,-1.32
2023-01-19T02:58:00.956Z,-1.27
2023-01-19T03:00:38.886Z,-1.27
2023-01-19T03:03:21.034Z,-1.30
2023-01-19T03:05:59.727Z,-1.36
2023-01-19T03:08:38.226Z,-1.37
2023-01-19T03:11:11.275Z,-1.34
2023-01-19T03:13:45.747Z,-1.36
2023-01-19T03:16:21.805Z,-1.38
2023-01-19T03:18:56.644Z,-1.36
2023-01-19T03:21:29.275Z,-1.36
2023-01-19T03:24:02.238Z,-1.37
2023-01-19T03:26:37.815Z,-1.38
2023-01-19T03:29:08.125Z,-1.38
2023-01-19T03:31:39.370Z,-1.40
2023-01-19T03:34:12.258Z,-1.40
2023-01-19T03:36:47.404Z,-1.41
2023-01-19T03:39:23.544Z,-1.42
2023-01-19T03:41:58.766Z,-1.42
2023-01-19T03:44:29.865Z,-1.42
2023-01-19T03:47:00.447Z,-1.42
2023-01-19T03:49:32.350Z,-1.45
2023-01-19T03:52:01.296Z,-1.48
2023-01-19T03:54:29.799Z,-1.48
2023-01-19T03:57:01.240Z,-1.50
2023-01-19T03:59:31.271Z,-1.52
2023-01-19T04:01:59.484Z,-1.53
2023-01-19T04:04:28.163Z,-1.54
2023-01-19T04:06:56.324Z,-1.56
2023-01-19T04:09:25.169Z,-1.56
2023-01-19T04:11:53.481Z,-1.56
2023-01-19T04:14:23.578Z,-1.57
2023-01-19T04:16:52.222Z,-1.58
2023-01-19T04:19:20.432Z,-1.63
2023-01-19T04:21:49.700Z,-1.69
2023-01-19T04:24:18.006Z,-1.71
2023-01-19T04:26:46.288Z,-1.73
2023-01-19T04:29:15.236Z,-1.76
2023-01-19T04:31:45.151Z,-1.77
2023-01-19T04:34:14.404Z,-1.83
2023-01-19T04:36:43.187Z,-1.83
2023-01-19T04:39:13.470Z,-1.84
2023-01-19T04:41:42.774Z,-1.86
2023-01-19T04:44:12.706Z,-1.89
2023-01-19T04:46:41.070Z,-1.94
2023-01-19T04:49:12.380Z,-1.96
2023-01-19T04:51:40.715Z,-1.98
2023-01-19T04:54:12.158Z,-1.98
2023-01-19T04:56:41.470Z,-2.01
2023-01-19T04:59:10.092Z,-2.01
2023-01-19T05:01:38.303Z,-2.04
2023-01-19T05:04:07.938Z,-2.03
2023-01-19T05:06:37.793Z,-2.04
2023-01-19T05:09:08.077Z,-2.05
2023-01-19T05:11:36.444Z,-2.03
2023-01-19T05:14:05.125Z,-2.04
2023-01-19T05:16:33.536Z,-2.02
2023-01-19T05:19:01.851Z,-2.01
2023-01-19T05:21:31.710Z,-2.03
2023-01-19T05:24:01.852Z,-2.03
2023-01-19T05:26:30.088Z,-2.03
2023-01-19T05:28:58.434Z,-2.03
2023-01-19T05:31:26.721Z,-2.04
2023-01-19T05:33:54.947Z,-2.04
2023-01-19T05:36:23.321Z,-2.01
2023-01-19T05:38:51.595Z,-2.00
2023-01-19T05:41:24.998Z,-1.98
2023-01-19T05:43:53.276Z,-1.95
2023-01-19T05:46:21.940Z,-1.92
2023-01-19T05:48:50.956Z,-1.89
2023-01-19T05:51:25.845Z,-1.87
2023-01-19T05:53:54.132Z,-1.86
2023-01-19T05:56:24.387Z,-1.87
2023-01-19T05:58:55.019Z,-1.89
2023-01-19T06:01:23.673Z,-1.93
2023-01-19T06:03:52.287Z,-1.98
2023-01-19T06:06:26.881Z,-1.98
2023-01-19T06:08:55.138Z,-2.00
2023-01-19T06:11:26.236Z,-2.07
2023-01-19T06:13:55.031Z,-2.06
2023-01-19T06:16:23.675Z,-2.09
2023-01-19T06:18:51.905Z,-2.11
2023-01-19T06:21:20.156Z,-2.11
2023-01-19T06:23:48.341Z,-2.11
2023-01-19T06:26:16.705Z,-2.12
2023-01-19T06:28:49.811Z,-2.14
2023-01-19T06:31:18.128Z,-2.16
2023-01-19T06:33:46.494Z,-2.17
2023-01-19T06:36:14.814Z,-2.19
2023-01-19T06:38:44.005Z,-2.18
2023-01-19T06:41:12.300Z,-2.19
2023-01-19T06:43:40.574Z,-2.17
2023-01-19T06:46:10.488Z,-2.18
2023-01-19T06:48:38.695Z,-2.21
2023-01-19T06:51:07.812Z,-2.21
2023-01-19T06:53:36.024Z,-2.24
2023-01-19T06:56:04.866Z,-2.27
2023-01-19T06:58:35.852Z,-2.30
2023-01-19T07:01:04.853Z,-2.34
2023-01-19T07:03:35.904Z,-2.37
2023-01-19T07:06:06.689Z,-2.38
2023-01-19T07:08:35.293Z,-2.40
2023-01-19T07:11:27.147Z,-2.39
2023-01-19T07:13:56.509Z,-2.39
2023-01-19T07:16:25.129Z,-2.40
2023-01-19T07:18:54.851Z,-2.39
2023-01-19T07:21:23.907Z,-2.39
2023-01-19T07:23:52.981Z,-2.36
2023-01-19T07:26:21.973Z,-2.35
2023-01-19T07:28:50.420Z,-2.35
2023-01-19T07:31:19.951Z,-2.44
2023-01-19T07:33:48.557Z,-2.53
2023-01-19T07:36:19.186Z,-2.58
2023-01-19T07:38:48.803Z,-2.62
2023-01-19T07:41:17.028Z,-2.64
2023-01-19T07:43:46.637Z,-2.64
2023-01-19T07:46:15.284Z,-2.63
2023-01-19T07:48:44.732Z,-2.56
2023-01-19T07:51:18.040Z,-2.55
2023-01-19T07:53:48.552Z,-2.56
2023-01-19T07:56:16.872Z,-2.49
2023-01-19T07:58:46.440Z,-2.47
2023-01-19T08:01:15.397Z,-2.45
2023-01-19T08:03:43.722Z,-2.41
2023-01-19T08:06:21.876Z,-2.38
2023-01-19T08:08:51.927Z,-2.32
2023-01-19T08:11:20.207Z,-2.27
2023-01-19T08:13:50.031Z,-2.24
2023-01-19T08:16:21.124Z,-2.13
2023-01-19T08:18:49.385Z,-2.05
2023-01-19T08:21:18.457Z,-2.02
2023-01-19T08:23:52.801Z,-1.89
2023-01-19T08:26:27.755Z,-1.80
2023-01-19T08:28:56.491Z,-1.73
2023-01-19T08:31:25.443Z,-1.67
2023-01-19T08:33:53.963Z,-1.60
2023-01-19T08:36:25.254Z,-1.54
2023-01-19T08:38:55.187Z,-1.50
2023-01-19T08:41:25.091Z,-1.44
2023-01-19T08:43:53.822Z,-1.37
2023-01-19T08:46:22.143Z,-1.29
2023-01-19T08:48:50.692Z,-1.23
2023-01-19T08:51:19.481Z,-1.17
2023-01-19T08:53:49.653Z,-1.11
2023-01-19T08:56:20.543Z,-1.04
2023-01-19T08:59:03.486Z,-0.98
2023-01-19T09:01:37.293Z,-0.90
2023-01-19T09:04:06.368Z,-0.83
2023-01-19T09:06:35.419Z,-0.76
2023-01-19T09:09:03.805Z,-0.72
2023-01-19T09:11:32.280Z,-0.66
2023-01-19T09:14:02.161Z,-0.61
2023-01-19T09:16:30.382Z,-0.59
2023-01-19T09:18:58.995Z,-0.52
2023-01-19T09:21:27.381Z,-0.45
2023-01-19T09:23:55.794Z,-0.36
2023-01-19T09:26:24.740Z,-0.33
2023-01-19T09:28:53.124Z,-0.27
2023-01-19T09:31:22.792Z,-0.21
2023-01-19T09:33:51.692Z,-0.17
2023-01-19T09:36:20.329Z,-0.10
2023-01-19T09:38:50.724Z,-0.05
2023-01-19T09:41:23.233Z,-0.01
2023-01-19T09:44:01.905Z,0.10
2023-01-19T09:46:39.967Z,0.18
2023-01-19T09:49:14.955Z,0.26
2023-01-19T09:51:47.165Z,0.29
2023-01-19T09:54:17.385Z,0.32
2023-01-19T09:56:51.344Z,0.39
2023-01-19T09:59:25.271Z,0.46
2023-01-19T10:02:07.098Z,0.52
2023-01-19T10:04:42.024Z,0.55
2023-01-19T10:07:34.947Z,0.58
2023-01-19T10:10:17.765Z,0.61
2023-01-19T10:12:56.155Z,0.65
2023-01-19T10:15:35.941Z,0.69
2023-01-19T10:18:17.771Z,0.77
2023-01-19T10:20:50.913Z,0.80
2023-01-19T10:23:38.482Z,0.85
2023-01-19T10:26:13.402Z,0.91
2023-01-19T10:28:43.094Z,0.96
2023-01-19T10:31:12.194Z,1.03
2023-01-19T10:33:42.079Z,1.08
2023-01-19T10:36:19.515Z,1.14
2023-01-19T10:38:50.226Z,1.21
2023-01-19T10:41:27.847Z,1.23
2023-01-19T10:44:04.410Z,1.27
2023-01-19T10:46:45.467Z,1.32
2023-01-19T10:49:31.386Z,1.34
2023-01-19T10:52:01.303Z,1.37
2023-01-19T10:54:32.689Z,1.36
2023-01-19T10:57:06.391Z,1.41
2023-01-19T10:59:37.304Z,1.46
2023-01-19T11:02:21.527Z,1.46
2023-01-19T11:04:54.085Z,1.52
2023-01-19T11:07:24.249Z,1.54
2023-01-19T11:10:14.138Z,1.55
2023-01-19T11:12:46.503Z,1.54
2023-01-19T11:15:17.677Z,1.55
2023-01-19T11:17:48.884Z,1.55
2023-01-19T11:20:23.735Z,1.58
2023-01-19T11:23:05.888Z,1.59
2023-01-19T11:25:37.188Z,1.61
2023-01-19T11:28:07.178Z,1.65
2023-01-19T11:30:36.451Z,1.67
2023-01-19T11:33:06.722Z,1.72
2023-01-19T11:35:39.973Z,1.74
2023-01-19T11:38:19.648Z,1.75
2023-01-19T11:40:55.361Z,1.76
2023-01-19T11:43:43.351Z,1.76
2023-01-19T11:46:18.037Z,1.78
2023-01-19T11:48:53.009Z,1.77
2023-01-19T11:51:25.398Z,1.76
2023-01-19T11:53:55.967Z,1.71
2023-01-19T11:56:28.306Z,1.77
2023-01-19T11:58:58.101Z,1.80
2023-01-19T12:01:31.097Z,1.79
2023-01-19T12:04:05.906Z,1.80
2023-01-19T12:06:36.837Z,1.79
2023-01-19T12:09:12.780Z,1.82
2023-01-19T12:11:45.507Z,1.84
2023-01-19T12:14:22.968Z,1.82
2023-01-19T12:16:54.587Z,1.81
2023-01-19T12:19:26.824Z,1.83
2023-01-19T12:21:55.955Z,1.79
2023-01-19T12:24:31.898Z,1.81
2023-01-19T12:27:03.481Z,1.81
2023-01-19T12:29:38.479Z,1.81
2023-01-19T12:32:21.236Z,1.84
2023-01-19T12:34:52.060Z,1.84
2023-01-19T12:37:43.520Z,1.85
2023-01-19T12:40:26.275Z,1.77
2023-01-19T12:43:01.859Z,1.73
2023-01-19T12:45:34.252Z,1.71
2023-01-19T12:48:03.716Z,1.67
2023-01-19T12:50:38.713Z,1.67
2023-01-19T12:53:18.985Z,1.65
2023-01-19T12:55:49.358Z,1.58
2023-01-19T12:58:19.598Z,1.56
2023-01-19T13:00:51.413Z,1.53
2023-01-19T13:04:03.171Z,1.48
2023-01-19T13:07:10.704Z,1.45
2023-01-19T13:09:43.502Z,1.46
2023-01-19T13:12:32.399Z,1.46
2023-01-19T13:15:29.420Z,1.43
2023-01-19T13:17:59.582Z,1.41
2023-01-19T13:20:32.762Z,1.39
2023-01-19T13:23:21.030Z,1.39
2023-01-19T13:25:55.877Z,1.38
2023-01-19T13:28:33.387Z,1.37
2023-01-19T13:31:05.194Z,1.33
2023-01-19T13:33:45.091Z,1.33
2023-01-19T13:36:22.598Z,1.27
2023-01-19T13:38:53.824Z,1.27
2023-01-19T13:41:26.709Z,1.24
2023-01-19T13:44:02.762Z,1.24
2023-01-19T13:46:33.485Z,1.26
2023-01-19T13:49:06.965Z,1.23
2023-01-19T13:51:35.183Z,1.22
2023-01-19T13:54:03.861Z,1.23
2023-01-19T13:56:33.452Z,1.22
2023-01-19T13:59:10.493Z,1.23
2023-01-19T14:01:44.677Z,1.25
2023-01-19T14:04:35.818Z,1.27
2023-01-19T14:07:07.289Z,1.26
2023-01-19T14:09:35.480Z,1.27
2023-01-19T14:12:13.001Z,1.29
2023-01-19T14:14:42.281Z,1.31
2023-01-19T14:17:24.269Z,1.31
2023-01-19T14:20:02.099Z,1.31
2023-01-19T14:22:45.581Z,1.31
2023-01-19T14:25:28.009Z,1.33
2023-01-19T14:28:29.509Z,1.36
2023-01-19T14:30:59.664Z,1.37
2023-01-19T14:33:42.472Z,1.39
2023-01-19T14:36:42.126Z,1.39
2023-01-19T14:39:22.396Z,1.37
2023-01-19T14:41:53.636Z,1.31
2023-01-19T14:44:28.971Z,1.28
2023-01-19T14:46:59.627Z,1.24
2023-01-19T14:49:37.826Z,1.19
2023-01-19T14:52:20.763Z,1.16
2023-01-19T14:54:51.256Z,1.11
2023-01-19T14:57:19.610Z,1.11
2023-01-19T14:59:49.725Z,1.13
2023-01-19T15:02:19.780Z,1.15
2023-01-19T15:04:49.141Z,1.19
2023-01-19T15:07:20.460Z,1.22
2023-01-19T15:09:49.534Z,1.27
2023-01-19T15:12:34.761Z,1.32
2023-01-19T15:15:03.518Z,1.37
2023-01-19T15:17:34.149Z,1.37
2023-01-19T15:20:02.544Z,1.42
2023-01-19T15:22:37.806Z,1.47
2023-01-19T15:25:06.930Z,1.48
2023-01-19T15:27:35.354Z,1.50
2023-01-19T15:30:15.883Z,1.56
2023-01-19T15:32:45.185Z,1.59
2023-01-19T15:35:18.904Z,1.63
2023-01-19T15:37:50.416Z,1.68
2023-01-19T15:40:20.986Z,1.71
2023-01-19T15:42:49.243Z,1.75
2023-01-19T15:45:40.340Z,1.77
2023-01-19T15:48:10.636Z,1.80
2023-01-19T15:50:40.469Z,1.81
2023-01-19T15:53:15.400Z,1.85
2023-01-19T15:55:45.169Z,1.87
2023-01-19T15:58:14.240Z,1.88
2023-01-19T16:00:43.007Z,1.92
2023-01-19T16:03:12.234Z,1.94
2023-01-19T16:05:43.904Z,1.93
2023-01-19T16:08:13.904Z,1.92
2023-01-19T16:10:43.997Z,1.97
2023-01-19T16:13:13.192Z,1.98
2023-01-19T16:15:42.623Z,2.00
2023-01-19T16:18:11.208Z,1.99
2023-01-19T16:20:39.591Z,2.02
2023-01-19T16:23:15.737Z,2.03
2023-01-19T16:25:45.797Z,2.04
2023-01-19T16:28:16.907Z,2.03
2023-01-19T16:30:45.180Z,2.01
2023-01-19T16:33:13.979Z,1.99
2023-01-19T16:35:43.870Z,1.98
2023-01-19T16:38:13.124Z,1.98
2023-01-19T16:40:41.349Z,1.98
2023-01-19T16:43:11.148Z,1.96
2023-01-19T16:45:58.025Z,1.94
2023-01-19T16:48:27.304Z,2.01
2023-01-19T16:51:00.334Z,2.02
2023-01-19T16:53:29.180Z,2.01
2023-01-19T16:55:57.478Z,2.01
2023-01-19T16:58:27.078Z,2.02
2023-01-19T17:00:56.417Z,2.01
2023-01-19T17:03:40.330Z,1.99
2023-01-19T17:06:09.418Z,1.96
2023-01-19T17:08:38.425Z,1.92
2023-01-19T17:11:10.811Z,1.92
2023-01-19T17:13:40.873Z,1.90
2023-01-19T17:16:10.605Z,1.84
2023-01-19T17:18:39.251Z,1.86
2023-01-19T17:21:10.012Z,1.83
2023-01-19T17:23:43.261Z,1.83
2023-01-19T17:26:11.993Z,1.81
2023-01-19T17:28:42.231Z,1.78
2023-01-19T17:31:12.886Z,1.75
2023-01-19T17:33:41.750Z,1.74
2023-01-19T17:36:14.290Z,1.71
2023-01-19T17:38:46.087Z,1.71
2023-01-19T17:41:15.099Z,1.71
2023-01-19T17:43:45.427Z,1.71
2023-01-19T17:46:13.702Z,1.69
2023-01-19T17:48:42.295Z,1.68
2023-01-19T17:51:15.628Z,1.68
2023-01-19T17:53:44.560Z,1.71
2023-01-19T17:56:14.697Z,1.75
2023-01-19T17:58:48.105Z,1.75
2023-01-19T18:01:18.635Z,1.76
2023-01-19T18:03:47.672Z,1.77
2023-01-19T18:06:16.986Z,1.80
2023-01-19T18:08:46.841Z,1.82
2023-01-19T18:11:16.743Z,1.81
2023-01-19T18:13:48.232Z,1.79
2023-01-19T18:16:18.217Z,1.78
2023-01-19T18:18:46.672Z,1.76
2023-01-19T18:21:16.095Z,1.77
2023-01-19T18:23:45.248Z,1.76
2023-01-19T18:26:15.774Z,1.74
2023-01-19T18:28:45.589Z,1.72
2023-01-19T18:31:16.670Z,1.69
2023-01-19T18:33:45.031Z,1.66
2023-01-19T18:36:13.285Z,1.65
2023-01-19T18:38:43.589Z,1.67
2023-01-19T18:41:13.709Z,1.65
2023-01-19T18:43:42.304Z,1.61
2023-01-19T18:46:12.897Z,1.63
2023-01-19T18:48:41.479Z,1.63
2023-01-19T18:51:12.184Z,1.62
2023-01-19T18:53:40.562Z,1.62
2023-01-19T18:56:10.288Z,1.64
2023-01-19T18:58:40.146Z,1.66
2023-01-19T19:01:21.334Z,1.69
2023-01-19T19:03:49.748Z,1.69
2023-01-19T19:06:20.841Z,1.70
2023-01-19T19:08:50.443Z,1.70
2023-01-19T19:11:19.143Z,1.71
2023-01-19T19:13:53.370Z,1.70
2023-01-19T19:16:23.307Z,1.71
2023-01-19T19:18:51.700Z,1.71
2023-01-19T19:21:21.324Z,1.72
2023-01-19T19:23:51.702Z,1.74
2023-01-19T19:26:20.122Z,1.73
2023-01-19T19:28:48.896Z,1.72
2023-01-19T19:31:20.764Z,1.72
2023-01-19T19:33:53.078Z,1.72
2023-01-19T19:36:22.085Z,1.69
2023-01-19T19:38:51.641Z,1.68
2023-01-19T19:41:22.648Z,1.67
2023-01-19T19:43:51.689Z,1.64
2023-01-19T19:46:21.341Z,1.63
2023-01-19T19:48:52.696Z,1.60
2023-01-19T19:51:23.785Z,1.57
2023-01-19T19:53:56.216Z,1.58
2023-01-19T19:56:25.883Z,1.60
2023-01-19T19:58:56.417Z,1.58
2023-01-19T20:01:29.004Z,1.57
2023-01-19T20:04:02.728Z,1.59
2023-01-19T20:06:37.467Z,1.57
2023-01-19T20:09:08.659Z,1.58
2023-01-19T20:11:37.862Z,1.54
2023-01-19T20:14:07.083Z,1.53
2023-01-19T20:16:36.943Z,1.51
2023-01-19T20:19:07.370Z,1.49
2023-01-19T20:21:37.528Z,1.49
2023-01-19T20:24:08.599Z,1.49
2023-01-19T20:26:41.411Z,1.50
2023-01-19T20:29:10.381Z,1.52
2023-01-19T20:31:43.241Z,1.53
2023-01-19T20:34:16.450Z,1.52
2023-01-19T20:36:49.660Z,1.51
2023-01-19T20:39:19.832Z,1.50
2023-01-19T20:41:52.694Z,1.55
2023-01-19T20:44:23.101Z,1.58
2023-01-19T20:46:51.998Z,1.57
2023-01-19T20:49:22.713Z,1.60
2023-01-19T20:51:52.237Z,1.60
2023-01-19T20:54:23.482Z,1.60
2023-01-19T20:56:52.007Z,1.60
2023-01-19T20:59:21.012Z,1.63
2023-01-19T21:01:51.386Z,1.64
2023-01-19T21:04:20.170Z,1.65
2023-01-19T21:06:50.270Z,1.64
2023-01-19T21:09:19.131Z,1.67
2023-01-19T21:11:47.459Z,1.70
2023-01-19T21:14:15.772Z,1.72
2023-01-19T21:16:44.333Z,1.72
2023-01-19T21:19:13.345Z,1.76
2023-01-19T21:21:43.822Z,1.74
2023-01-19T21:24:13.587Z,1.75
2023-01-19T21:26:42.171Z,1.76
2023-01-19T21:29:14.121Z,1.82
2023-01-19T21:31:43.093Z,1.86
2023-01-19T21:34:11.560Z,1.91
2023-01-19T21:36:39.916Z,1.96
2023-01-19T21:39:09.119Z,2.02
2023-01-19T21:41:43.035Z,2.07
2023-01-19T21:44:12.583Z,2.13
2023-01-19T21:46:41.137Z,2.12
2023-01-19T21:49:19.868Z,2.22
2023-01-19T21:51:50.932Z,2.24
2023-01-19T21:54:21.077Z,2.27
2023-01-19T21:56:50.759Z,2.26
2023-01-19T21:59:29.336Z,2.29
2023-01-19T22:02:01.035Z,2.29
2023-01-19T22:04:30.051Z,2.29
2023-01-19T22:06:58.693Z,2.33
2023-01-19T22:09:27.280Z,2.35
2023-01-19T22:11:57.135Z,2.36
2023-01-19T22:14:25.346Z,2.39
2023-01-19T22:16:53.997Z,2.38
2023-01-19T22:19:22.381Z,2.35
2023-01-19T22:21:50.847Z,2.35
2023-01-19T22:24:19.217Z,2.34
2023-01-19T22:26:47.511Z,2.37
2023-01-19T22:29:17.182Z,2.37
2023-01-19T22:31:46.044Z,2.40
2023-01-19T22:34:17.113Z,2.39
2023-01-19T22:36:45.858Z,2.38
2023-01-19T22:39:14.940Z,2.41
2023-01-19T22:41:46.338Z,2.42
2023-01-19T22:44:20.428Z,2.44
2023-01-19T22:46:49.944Z,2.43
2023-01-19T22:49:19.787Z,2.47
2023-01-19T22:51:48.430Z,2.49
2023-01-19T22:54:18.491Z,2.50
2023-01-19T22:56:46.981Z,2.47
2023-01-19T22:59:17.011Z,2.48
2023-01-19T23:01:45.882Z,2.45
2023-01-19T23:04:15.903Z,2.46
2023-01-19T23:06:47.170Z,2.41
2023-01-19T23:09:16.516Z,2.45
2023-01-19T23:11:48.886Z,2.43
2023-01-19T23:14:20.757Z,2.43
2023-01-19T23:16:51.995Z,2.45
2023-01-19T23:19:21.045Z,2.40
2023-01-19T23:21:53.746Z,2.45
2023-01-19T23:24:23.781Z,2.46
2023-01-19T23:26:52.790Z,2.46
2023-01-19T23:29:22.661Z,2.45
2023-01-19T23:31:53.829Z,2.46
2023-01-19T23:34:22.130Z,2.47
2023-01-19T23:36:50.541Z,2.43
2023-01-19T23:39:20.770Z,2.46
2023-01-19T23:41:50.328Z,2.47
2023-01-19T23:44:19.349Z,2.47
2023-01-19T23:46:50.289Z,2.48
2023-01-19T23:49:18.943Z,2.49
2023-01-19T23:51:48.431Z,2.48
2023-01-19T23:54:16.908Z,2.51
2023-01-19T23:56:45.769Z,2.53
2023-01-19T23:59:17.120Z,2.55
